• Join FlightAware (Why Join?)
  • Login
  • US Flag 
09:02AM EST


 

Airport Tracker/Info


-or-


 

Live Flight TrackerFlight Track Log ✈ AWE66 ✈ 18-Aug-2014 ✈ KJFK - LEBL / BCN

Flight Track Log - Related Links

Times and Time Zones

All times are in EDT time to prevent confusion due to time zone crossing. See the AWE66 flight status page for this flight to view local times or setup timezone preferences in your user account.

Time Position Orientation Groundspeed Altitude Reporting Facility
EDT Latitude Longitude Course Direction KTS MPH feet Rate Location/Type
05:49PM 40.5533 -73.8275 128° Southeast 199 229 3,200  Level New York Center
05:50PM 40.4989 -73.7622 138° Southeast 240 276 5,400 1,800 Climbing New York Center
05:51PM 40.4148 -73.3858 128° Southeast  Level FlightAware Approximate
05:51PM 40.4719 -73.6711 111° Southeast 262 302 6,900  Level New York Center
05:52PM 40.3269 -73.2487 131° Southeast  Level FlightAware Approximate
05:52PM 40.4308 -73.5603 116° Southeast 296 341 8,700  Level New York Center
05:53PM 40.2421 -73.1085 128° Southeast  Level FlightAware Approximate
05:53PM 40.3997 -73.4664 113° Southeast 309 356 11,500  Level New York Center
05:54PM 40.1578 -72.9679 128° Southeast  Level FlightAware Approximate
05:54PM 40.3608 -73.3422 112° Southeast 319 367 14,300  Level New York Center
05:55PM 40.3214 -73.2375 116° Southeast 339 390 15,700 1,800 Climbing New York Center
05:56PM 40.2450 -73.1042 127° Southeast 391 450 18,000 2,280 Climbing New York Center
05:57PM 40.1681 -72.9794 129° Southeast 415 478 20,300 2,160 Climbing New York Center
05:58PM 40.0933 -72.8522 127° Southeast 434 499 22,400 1,320 Climbing New York Center
05:59PM 40.0164 -72.7225 128° Southeast 446 513 23,000 780 Climbing New York Center
06:00PM 39.9375 -72.5875 127° Southeast 457 526 24,100 1,500 Climbing New York Center
06:01PM 39.8561 -72.4528 128° Southeast 462 532 26,000 1,740 Climbing New York Center
06:02PM 39.7894 -72.3025 120° Southeast 473 544 27,700 1,440 Climbing New York Center
06:03PM 39.7708 -72.1239 98° East 473 544 29,000 600 Climbing New York Center
06:04PM 39.7561 -71.9428 96° East 484 557 29,000  Level New York Center
06:05PM 39.7411 -71.7644 96° East 499 574 29,000  Level New York Center
06:06PM 39.7278 -71.5994 96° East 505 581 29,000  Level New York Center
06:07PM 39.7061 -71.4267 99° East 500 575 29,000 480 Level New York Center
06:08PM 39.6861 -71.2458 98° East 500 575 30,000 960 Climbing New York Center
06:09PM 39.6661 -71.0622 98° East 505 581 31,000 480 Climbing New York Center
06:10PM 39.6414 -70.8842 100° East 505 581 31,000  Level New York Center
06:11PM 39.6228 -70.7008 97° East 505 581 31,000  Level New York Center
06:12PM 39.6017 -70.5150 98° East 505 581 31,000  Level New York Center
06:13PM 39.5803 -70.3344 99° East 505 581 31,000 180 Level New York Center
06:14PM 39.5567 -70.1542 100° East 505 581 31,400 1,140 Climbing New York Center
06:15PM 39.5306 -69.9661 100° East 500 575 33,300 1,560 Climbing New York Center
06:16PM 39.5064 -69.7808 100° East 500 575 34,600 1,140 Climbing New York Center
06:17PM 39.4839 -69.5981 99° East 505 581 35,600 660 Climbing New York Center
06:18PM 39.4592 -69.4156 100° East 511 588 36,000 180 Climbing New York Center
06:19PM 39.4342 -69.2333 100° East 511 588 36,000  Level New York Center
06:20PM 39.4108 -69.0539 99° East 511 588 36,000  Level New York Center
06:21PM 39.3853 -68.8744 100° East 506 582 36,000  Level New York Center
06:22PM 39.3617 -68.6950 100° East 506 582 36,000  Level New York Center
06:23PM 39.3375 -68.5158 100° East 506 582 36,000  Level New York Center
06:24PM 39.3133 -68.3342 100° East 506 582 36,000  Level New York Center
06:25PM 39.2886 -68.1581 100° East 506 582 36,000  Level New York Center
06:26PM 39.2617 -67.9739 101° East 506 582 36,000  Level New York Center
06:27PM 39.2344 -67.7981 101° East 507 583 36,000  Level New York Center
06:28PM 39.2069 -67.6169 101° East 507 583 36,000  Level New York Center
06:29PM 39.1833 -67.4331 99° East 507 583 36,000  Level New York Center
06:30PM 39.1533 -67.2550 102° East 507 583 36,000  Level New York Center
06:31PM 39.1289 -67.0717 100° East 507 583 36,000  Level New York Center
06:32PM 39.1167 -67.0000 78° East 505 581 36,000  Level New York Oceanic (ODAPS)
06:35PM 39.2167 -66.3667 79° East 507 583 36,000  Level New York Oceanic (ODAPS)
06:46PM 39.4667 -64.6500 80° East 508 585 36,000  Level New York Oceanic (ODAPS)
06:55PM 39.6833 -62.9333 81° East 507 583 36,000  Level New York Oceanic (ODAPS)
07:04PM 39.8833 -61.1833 82° East 501 577 36,000  Level New York Oceanic (ODAPS)
07:11PM 40.0000 -60.0000 72° East 507 583 36,000  Level New York Oceanic (ODAPS)
07:14PM 40.1333 -59.4833 72° East 508 585 36,000  Level New York Oceanic (ODAPS)
07:14PM 40.1500 -59.4000 72° East 509 586 36,000  Level New York Oceanic (ODAPS)
07:15PM 40.1741 -59.2941 72° East 501 577 36,000  Level FlightAware Transoceanic
07:15PM 40.1500 -59.3667 72° East 509 586 36,000  Level New York Oceanic (ODAPS)
07:16PM 40.2167 -59.1500 73° East 507 583 36,000  Level New York Oceanic (ODAPS)
07:25PM 40.5167 -57.8667 73° East 500 575 36,000  Level New York Oceanic (ODAPS)
07:25PM 40.5500 -57.7333 73° East 500 575 36,000  Level New York Oceanic (ODAPS)
07:33PM 40.8667 -56.2667 74° East 506 582 36,000  Level New York Oceanic (ODAPS)
07:35PM 40.9333 -55.9667 75° East 511 588 36,000  Level New York Oceanic (ODAPS)
07:43PM 41.2167 -54.5500 76° East 508 585 36,000  Level New York Oceanic (ODAPS)
07:53PM 41.5333 -52.8167 77° East 503 579 36,000  Level New York Oceanic (ODAPS)
08:02PM 41.8333 -51.0833 78° East 502 578 36,000  Level New York Oceanic (ODAPS)
08:08PM 42.0000 -50.0500 90° East 510 587 36,000  Level New York Oceanic (ODAPS)
08:09PM 42.0833 -49.6667 72° East 510 587 36,000  Level New York Oceanic (ODAPS)
08:12PM 42.1667 -49.3167 72° East 510 587 36,000  Level New York Oceanic (ODAPS)
08:21PM 42.5333 -47.7667 73° East 503 579 36,000  Level New York Oceanic (ODAPS)
08:31PM 42.9167 -46.0667 74° East 499 574 36,000  Level New York Oceanic (ODAPS)
08:40PM 43.2500 -44.3333 75° East 497 572 36,000  Level New York Oceanic (ODAPS)
08:50PM 43.5833 -42.5833 77° East 496 571 36,000  Level New York Oceanic (ODAPS)
08:59PM 43.8833 -40.8000 78° East 496 571 36,000  Level New York Oceanic (ODAPS)
09:18PM 44.0000 -40.0000 87° East 507 583 36,000  Level ETMS Enhanced Traffic Management System
09:19PM 44.0906 -37.0609 89° East 496 571 36,000  Level FlightAware Transoceanic
09:20PM 44.0940 -36.8647 89° East 496 571 36,000  Level FlightAware Transoceanic
09:21PM 44.0970 -36.6685 89° East 496 571 36,000  Level FlightAware Transoceanic
09:22PM 44.0997 -36.4722 89° East 496 571 36,000  Level FlightAware Transoceanic
09:23PM 44.1021 -36.2760 89° East 496 571 36,000  Level FlightAware Transoceanic
09:24PM 44.1041 -36.0797 89° East 507 583 36,000  Level FlightAware Transoceanic
09:25PM 44.1058 -35.8834 89° East 507 583 36,000  Level FlightAware Transoceanic
09:26PM 44.1071 -35.6871 90° East 507 583 36,000  Level FlightAware Transoceanic
09:27PM 44.1081 -35.4908 90° East 507 583 36,000  Level FlightAware Transoceanic
09:28PM 44.1088 -35.2945 90° East 507 583 36,000  Level FlightAware Transoceanic
09:29PM 44.1091 -35.0982 90° East 507 583 36,000  Level FlightAware Transoceanic
09:30PM 44.1091 -34.9018 90° East 507 583 36,000  Level FlightAware Transoceanic
09:31PM 44.1088 -34.7055 90° East 507 583 36,000  Level FlightAware Transoceanic
09:32PM 44.1081 -34.5092 90° East 507 583 36,000  Level FlightAware Transoceanic
09:33PM 44.1071 -34.3129 90° East 507 583 36,000  Level FlightAware Transoceanic
09:34PM 44.1058 -34.1166 91° East 507 583 36,000  Level FlightAware Transoceanic
09:35PM 44.1041 -33.9203 91° East 507 583 36,000  Level FlightAware Transoceanic
09:36PM 44.1021 -33.7240 91° East 507 583 36,000  Level FlightAware Transoceanic
09:37PM 44.0997 -33.5278 91° East 507 583 36,000  Level FlightAware Transoceanic
09:38PM 44.0970 -33.3315 91° East 507 583 36,000  Level FlightAware Transoceanic
09:39PM 44.0940 -33.1353 91° East 507 583 36,000  Level FlightAware Transoceanic
09:40PM 44.0906 -32.9391 91° East 507 583 36,000  Level FlightAware Transoceanic
09:41PM 44.0869 -32.7429 92° East 507 583 36,000  Level FlightAware Transoceanic
09:42PM 44.0829 -32.5467 92° East 507 583 36,000  Level FlightAware Transoceanic
09:43PM 44.0785 -32.3506 92° East 507 583 36,000  Level FlightAware Transoceanic
09:44PM 44.0738 -32.1545 92° East 507 583 36,000  Level FlightAware Transoceanic
09:45PM 44.0688 -31.9584 92° East 507 583 36,000  Level FlightAware Transoceanic
09:46PM 44.0634 -31.7624 92° East 507 583 36,000  Level FlightAware Transoceanic
09:47PM 44.0577 -31.5664 92° East 507 583 36,000  Level FlightAware Transoceanic
09:48PM 44.0517 -31.3704 93° East 507 583 36,000  Level FlightAware Transoceanic
09:49PM 44.0453 -31.1745 93° East 507 583 36,000  Level FlightAware Transoceanic
09:50PM 44.0386 -30.9786 93° East 507 583 36,000  Level FlightAware Transoceanic
09:51PM 44.0315 -30.7828 93° East 507 583 36,000  Level FlightAware Transoceanic
09:52PM 44.0242 -30.5870 93° East 507 583 36,000  Level FlightAware Transoceanic
09:53PM 44.0164 -30.3913 93° East 507 583 36,000  Level FlightAware Transoceanic
09:54PM 44.0084 -30.1956 93° East 507 583 36,000  Level FlightAware Transoceanic
09:55PM 44.0003 -30.0078 93° East  Level FlightAware Approximate
09:56PM 43.9920 -29.8199 93° East  Level FlightAware Approximate
09:57PM 43.9895 -29.8280 95° East  Level FlightAware Approximate
09:58PM 43.9778 -29.6406 95° East  Level FlightAware Approximate
09:59PM 43.9658 -29.4532 95° East  Level FlightAware Approximate
10:00PM 43.9534 -29.2659 95° East  Level FlightAware Approximate
10:01PM 43.9408 -29.0787 95° East  Level FlightAware Approximate
10:02PM 43.9279 -28.8916 95° East  Level FlightAware Approximate
10:03PM 43.9147 -28.7046 95° East  Level FlightAware Approximate
10:04PM 43.9020 -28.5175 95° East  Level FlightAware Approximate
10:05PM 43.8890 -28.3305 95° East  Level FlightAware Approximate
10:06PM 43.8757 -28.1436 96° East  Level FlightAware Approximate
10:07PM 43.8621 -27.9568 96° East  Level FlightAware Approximate
10:08PM 43.8482 -27.7701 96° East  Level FlightAware Approximate
10:09PM 43.8340 -27.5834 96° East  Level FlightAware Approximate
10:10PM 43.8194 -27.3968 96° East  Level FlightAware Approximate
10:11PM 43.8046 -27.2104 96° East  Level FlightAware Approximate
10:12PM 43.7895 -27.0240 96° East  Level FlightAware Approximate
10:13PM 43.7740 -26.8377 96° East  Level FlightAware Approximate
10:14PM 43.7583 -26.6516 97° East  Level FlightAware Approximate
10:15PM 43.7422 -26.4655 97° East  Level FlightAware Approximate
10:16PM 43.7259 -26.2795 97° East  Level FlightAware Approximate
10:17PM 43.7093 -26.0936 97° East  Level FlightAware Approximate
10:18PM 43.6923 -25.9079 97° East  Level FlightAware Approximate
10:19PM 43.6751 -25.7222 97° East  Level FlightAware Approximate
10:20PM 43.6575 -25.5366 97° East  Level FlightAware Approximate
10:21PM 43.6397 -25.3512 98° East  Level FlightAware Approximate
10:22PM 43.6215 -25.1658 98° East  Level FlightAware Approximate
10:23PM 43.6031 -24.9806 98° East  Level FlightAware Approximate
10:24PM 43.5846 -24.7954 98° East  Level FlightAware Approximate
10:25PM 43.5660 -24.6104 98° East  Level FlightAware Approximate
10:26PM 43.5470 -24.4254 98° East  Level FlightAware Approximate
10:27PM 43.5278 -24.2406 98° East  Level FlightAware Approximate
10:28PM 43.5082 -24.0558 98° East  Level FlightAware Approximate
10:29PM 43.4884 -23.8713 98° East  Level FlightAware Approximate
10:30PM 43.4682 -23.6868 98° East  Level FlightAware Approximate
10:31PM 43.4478 -23.5024 99° East  Level FlightAware Approximate
10:32PM 43.4271 -23.3182 99° East  Level FlightAware Approximate
10:33PM 43.4060 -23.1341 99° East  Level FlightAware Approximate
10:34PM 43.3847 -22.9501 99° East  Level FlightAware Approximate
10:35PM 43.3631 -22.7663 99° East  Level FlightAware Approximate
10:36PM 43.3411 -22.5826 99° East  Level FlightAware Approximate
10:37PM 43.3189 -22.3990 99° East  Level FlightAware Approximate
10:38PM 43.2964 -22.2156 100° East  Level FlightAware Approximate
10:39PM 43.2736 -22.0322 100° East  Level FlightAware Approximate
10:40PM 43.2505 -21.8491 100° East  Level FlightAware Approximate
10:41PM 43.2272 -21.6661 100° East  Level FlightAware Approximate
10:42PM 43.2035 -21.4832 100° East  Level FlightAware Approximate
10:43PM 43.1795 -21.3004 100° East  Level FlightAware Approximate
10:44PM 43.1553 -21.1178 100° East  Level FlightAware Approximate
10:45PM 43.1307 -20.9354 100° East  Level FlightAware Approximate
10:46PM 43.1059 -20.7531 101° East  Level FlightAware Approximate
10:47PM 43.0808 -20.5709 101° East  Level FlightAware Approximate
10:48PM 43.0553 -20.3889 101° East  Level FlightAware Approximate
10:49PM 43.0296 -20.2071 101° East  Level FlightAware Approximate
10:50PM 43.0038 -20.0262 101° East  Level FlightAware Approximate
10:51PM 43.0067 -19.8428 87° East  Level FlightAware Approximate
10:52PM 43.0143 -19.6588 87° East  Level FlightAware Approximate
10:53PM 43.0216 -19.4748 87° East  Level FlightAware Approximate
10:54PM 43.0285 -19.2907 87° East  Level FlightAware Approximate
10:55PM 43.0352 -19.1066 87° East  Level FlightAware Approximate
10:56PM 43.0416 -18.9225 87° East  Level FlightAware Approximate
10:57PM 43.0477 -18.7383 87° East  Level FlightAware Approximate
10:58PM 43.0535 -18.5541 87° East  Level FlightAware Approximate
10:59PM 43.0591 -18.3699 88° East  Level FlightAware Approximate
11:00PM 43.0643 -18.1856 88° East  Level FlightAware Approximate
11:01PM 43.0692 -18.0013 88° East  Level FlightAware Approximate
11:02PM 43.0738 -17.8170 88° East  Level FlightAware Approximate
11:03PM 43.0781 -17.6326 88° East  Level FlightAware Approximate
11:04PM 43.0821 -17.4482 88° East  Level FlightAware Approximate
11:05PM 43.0859 -17.2638 88° East  Level FlightAware Approximate
11:06PM 43.0893 -17.0794 88° East  Level FlightAware Approximate
11:07PM 43.0925 -16.8949 89° East  Level FlightAware Approximate
11:08PM 43.0953 -16.7105 89° East  Level FlightAware Approximate
11:09PM 43.0979 -16.5260 89° East  Level FlightAware Approximate
11:10PM 43.1001 -16.3415 89° East  Level FlightAware Approximate
11:11PM 43.1021 -16.1570 89° East  Level FlightAware Approximate
11:12PM 43.1037 -15.9724 89° East  Level FlightAware Approximate
11:13PM 43.1051 -15.7879 89° East  Level FlightAware Approximate
11:14PM 43.1062 -15.6034 89° East  Level FlightAware Approximate
11:15PM 43.1069 -15.4188 90° East  Level FlightAware Approximate
11:16PM 43.1074 -15.2343 90° East  Level FlightAware Approximate
11:17PM 43.1076 -15.0497 90° East  Level FlightAware Approximate
11:18PM 43.1075 -14.8652 90° East  Level FlightAware Approximate
11:19PM 43.1070 -14.6806 90° East  Level FlightAware Approximate
11:20PM 43.1063 -14.4961 90° East  Level FlightAware Approximate
11:21PM 43.1053 -14.3116 90° East  Level FlightAware Approximate
11:22PM 43.1040 -14.1270 90° East  Level FlightAware Approximate
11:23PM 43.1024 -13.9425 91° East  Level FlightAware Approximate
11:24PM 43.1005 -13.7580 91° East  Level FlightAware Approximate
11:25PM 43.0983 -13.5735 91° East  Level FlightAware Approximate
11:26PM 43.0958 -13.3894 91° East  Level FlightAware Approximate
11:27PM 43.0930 -13.2054 91° East  Level FlightAware Approximate
11:28PM 43.0900 -13.0214 91° East  Level FlightAware Approximate
11:29PM 43.0866 -12.8374 91° East  Level FlightAware Approximate
11:30PM 43.0829 -12.6534 91° East  Level FlightAware Approximate
11:31PM 43.0790 -12.4694 92° East  Level FlightAware Approximate
11:32PM 43.0747 -12.2855 92° East  Level FlightAware Approximate
11:33PM 43.0702 -12.1016 92° East  Level FlightAware Approximate
11:34PM 43.0653 -11.9177 92° East  Level FlightAware Approximate
11:35PM 43.0602 -11.7339 92° East  Level FlightAware Approximate
11:36PM 43.0548 -11.5500 92° East  Level FlightAware Approximate
11:37PM 43.0490 -11.3663 92° East  Level FlightAware Approximate
11:38PM 43.0430 -11.1825 93° East  Level FlightAware Approximate
11:39PM 43.0367 -10.9988 93° East  Level FlightAware Approximate
11:40PM 43.0301 -10.8151 93° East  Level FlightAware Approximate
11:41PM 43.0232 -10.6315 93° East  Level FlightAware Approximate
11:42PM 43.0160 -10.4479 93° East  Level FlightAware Approximate
11:43PM 43.0085 -10.2644 93° East  Level FlightAware Approximate
11:44PM 43.0007 -10.0809 93° East  Level FlightAware Approximate
11:45PM 42.9927 -9.8974 93° East  Level FlightAware Approximate
11:46PM 42.9843 -9.7140 94° East  Level FlightAware Approximate
11:47PM 42.9756 -9.5306 94° East  Level FlightAware Approximate
11:48PM 42.9667 -9.3473 94° East  Level FlightAware Approximate
11:49PM 42.9574 -9.1641 94° East  Level FlightAware Approximate
11:50PM 42.9479 -8.9813 94° East  Level FlightAware Approximate
11:51PM 42.9381 -8.7986 94° East  Level FlightAware Approximate
11:52PM 42.9280 -8.6160 94° East  Level FlightAware Approximate
11:53PM 42.9176 -8.4334 94° East  Level FlightAware Approximate
11:54PM 42.8994 -8.2520 98° East  Level FlightAware Approximate
11:55PM 42.8800 -8.0709 98° East  Level FlightAware Approximate
11:56PM 42.8604 -7.8899 98° East  Level FlightAware Approximate
11:57PM 42.8405 -7.7090 98° East  Level FlightAware Approximate
11:58PM 42.8204 -7.5282 99° East  Level FlightAware Approximate
11:59PM 42.7999 -7.3476 99° East  Level FlightAware Approximate
12:00AM 42.7792 -7.1670 99° East  Level FlightAware Approximate
12:01AM 42.7581 -6.9866 99° East  Level FlightAware Approximate
12:02AM 42.7368 -6.8063 99° East  Level FlightAware Approximate
12:03AM 42.7152 -6.6261 99° East  Level FlightAware Approximate
12:04AM 42.6934 -6.4461 99° East  Level FlightAware Approximate
12:05AM 42.6712 -6.2662 99° East  Level FlightAware Approximate
12:06AM 42.6488 -6.0864 100° East  Level FlightAware Approximate
12:07AM 42.6260 -5.9067 100° East  Level FlightAware Approximate
12:08AM 42.6030 -5.7272 100° East  Level FlightAware Approximate
12:09AM 42.5798 -5.5478 100° East  Level FlightAware Approximate
12:10AM 42.5562 -5.3685 100° East  Level FlightAware Approximate
12:11AM 42.5323 -5.1894 100° East  Level FlightAware Approximate
12:12AM 42.5082 -5.0104 100° East  Level FlightAware Approximate
12:13AM 42.4838 -4.8316 100° East  Level FlightAware Approximate
12:14AM 42.4592 -4.6529 101° East  Level FlightAware Approximate
12:15AM 42.4342 -4.4743 101° East  Level FlightAware Approximate
12:16AM 42.4090 -4.2959 101° East  Level FlightAware Approximate
12:17AM 42.3835 -4.1176 101° East  Level FlightAware Approximate
12:18AM 42.3571 -3.9397 101° East  Level FlightAware Approximate
12:19AM 42.3305 -3.7618 101° East  Level FlightAware Approximate
12:20AM 42.3036 -3.5841 102° East  Level FlightAware Approximate
12:21AM 42.2764 -3.4066 102° East  Level FlightAware Approximate
12:22AM 42.2490 -3.2292 102° East  Level FlightAware Approximate
12:23AM 42.2212 -3.0520 102° East  Level FlightAware Approximate
12:24AM 42.1933 -2.8750 102° East  Level FlightAware Approximate
12:25AM 42.1650 -2.6981 102° East  Level FlightAware Approximate
12:26AM 42.1365 -2.5213 102° East  Level FlightAware Approximate
12:27AM 42.1077 -2.3447 102° East  Level FlightAware Approximate
12:28AM 42.0786 -2.1683 102° East  Level FlightAware Approximate
12:29AM 42.0492 -1.9921 103° East  Level FlightAware Approximate
12:30AM 42.0196 -1.8160 103° East  Level FlightAware Approximate
12:31AM 41.9897 -1.6400 103° East  Level FlightAware Approximate
12:32AM 41.9596 -1.4643 103° East  Level FlightAware Approximate
12:33AM 41.9291 -1.2887 103° East  Level FlightAware Approximate
12:34AM 41.8984 -1.1133 103° East  Level FlightAware Approximate
12:35AM 41.8675 -0.9380 103° East  Level FlightAware Approximate
12:36AM 41.8403 -0.7617 102° East  Level FlightAware Approximate
12:37AM 41.8104 -0.5863 103° East  Level FlightAware Approximate
12:38AM 41.7775 -0.4120 110° East  Level FlightAware Approximate
12:39AM 41.7322 -0.2429 103° East  Level FlightAware Approximate
12:40AM 41.7049 -0.0670 101° East  Level FlightAware Approximate
12:41AM 41.6771 0.1085 108° East  Level FlightAware Approximate
12:42AM 41.6345 0.2787 108° East  Level FlightAware Approximate
12:43AM 41.6025 0.4529 104° East  Level FlightAware Approximate
12:44AM 41.5709 0.6271 104° East  Level FlightAware Approximate
12:45AM 41.5405 0.8016 103° East  Level FlightAware Approximate
12:46AM 41.5101 0.9761 103° East  Level FlightAware Approximate
12:47AM 41.4735 1.1483 107° East  Level FlightAware Approximate
12:48AM 41.4376 1.3205 103° East  Level FlightAware Approximate
12:49AM 41.4069 1.4946 103° East  Level FlightAware Approximate
12:50AM 41.3687 1.6659 106° East  Level FlightAware Approximate
12:51AM 41.3363 1.8380 108° East  Level FlightAware Approximate
12:52AM 41.3023 2.0097 114° Southeast  Level FlightAware Approximate
12:53AM 41.2833 2.0667 114° Southeast  Level FlightAware Approximate
12:54AM 41.2971 2.0785 114° Southeast  Level Estimated
12:55AM 41.2971 2.0785 114° Southeast  Level Estimated
12:56AM 41.2971 2.0785 114° Southeast  Level Estimated
12:57AM 41.2971 2.0785 114° Southeast  Level Estimated
12:58AM 41.2971 2.0785 114° Southeast  Level Estimated
12:59AM 41.2971 2.0785 114° Southeast  Level Estimated
01:00AM 41.2971 2.0785 114° Southeast  Level Estimated
01:01AM 41.2971 2.0785 114° Southeast  Level Estimated
01:02AM 41.2971 2.0785 114° Southeast  Level Estimated
01:03AM 41.2971 2.0785 114° Southeast  Level Estimated
01:04AM 41.2971 2.0785 114° Southeast  Level Estimated
01:05AM 41.2971 2.0785 114° Southeast  Level Estimated
01:06AM 41.2971 2.0785 114° Southeast  Level Estimated